sensor_id;sensor_type;location;lat;lon;timestamp;temperature;humidity
28767;DHT22;15921;52.034;20.650;2023-05-31T00:01:32;10.20;99.90
28767;DHT22;15921;52.034;20.650;2023-05-31T00:03:58;10.10;99.90
28767;DHT22;15921;52.034;20.650;2023-05-31T00:06:24;10.10;99.90
28767;DHT22;15921;52.034;20.650;2023-05-31T00:08:50;10.00;99.90
28767;DHT22;15921;52.034;20.650;2023-05-31T00:11:15;9.90;99.90
28767;DHT22;15921;52.034;20.650;2023-05-31T00:13:41;9.90;99.90
28767;DHT22;15921;52.034;20.650;2023-05-31T00:16:08;9.80;99.90
28767;DHT22;15921;52.034;20.650;2023-05-31T00:18:34;9.70;99.90
28767;DHT22;15921;52.034;20.650;2023-05-31T00:20:59;9.60;99.90
28767;DHT22;15921;52.034;20.650;2023-05-31T00:23:25;9.50;99.90
28767;DHT22;15921;52.034;20.650;2023-05-31T00:25:51;9.50;99.90
28767;DHT22;15921;52.034;20.650;2023-05-31T00:28:16;9.40;99.90
28767;DHT22;15921;52.034;20.650;2023-05-31T00:30:42;9.30;99.90
28767;DHT22;15921;52.034;20.650;2023-05-31T00:33:08;9.30;99.90
28767;DHT22;15921;52.034;20.650;2023-05-31T00:35:34;9.20;99.90
28767;DHT22;15921;52.034;20.650;2023-05-31T00:38:04;9.20;99.90
28767;DHT22;15921;52.034;20.650;2023-05-31T00:40:30;9.10;99.90
28767;DHT22;15921;52.034;20.650;2023-05-31T00:42:55;9.10;99.90
28767;DHT22;15921;52.034;20.650;2023-05-31T00:45:21;9.10;99.90
28767;DHT22;15921;52.034;20.650;2023-05-31T00:47:46;9.10;99.90
28767;DHT22;15921;52.034;20.650;2023-05-31T00:50:12;9.00;99.90
28767;DHT22;15921;52.034;20.650;2023-05-31T00:52:38;9.00;99.90
28767;DHT22;15921;52.034;20.650;2023-05-31T00:55:05;8.90;99.90
28767;DHT22;15921;52.034;20.650;2023-05-31T00:57:31;8.80;99.90
28767;DHT22;15921;52.034;20.650;2023-05-31T00:59:57;8.80;99.90
28767;DHT22;15921;52.034;20.650;2023-05-31T01:02:23;8.60;99.90
28767;DHT22;15921;52.034;20.650;2023-05-31T01:04:49;8.60;99.90
28767;DHT22;15921;52.034;20.650;2023-05-31T01:07:15;8.50;99.90
28767;DHT22;15921;52.034;20.650;2023-05-31T01:09:41;8.50;99.90
28767;DHT22;15921;52.034;20.650;2023-05-31T01:17:53;8.40;99.90
28767;DHT22;15921;52.034;20.650;2023-05-31T01:20:32;8.40;99.90
28767;DHT22;15921;52.034;20.650;2023-05-31T01:23:11;8.20;99.90
28767;DHT22;15921;52.034;20.650;2023-05-31T01:28:32;8.20;99.90
28767;DHT22;15921;52.034;20.650;2023-05-31T01:31:02;8.20;99.90
28767;DHT22;15921;52.034;20.650;2023-05-31T01:33:28;8.10;99.90
28767;DHT22;15921;52.034;20.650;2023-05-31T01:35:54;8.10;99.90
28767;DHT22;15921;52.034;20.650;2023-05-31T01:38:19;8.10;99.90
28767;DHT22;15921;52.034;20.650;2023-05-31T01:40:45;8.00;99.90
28767;DHT22;15921;52.034;20.650;2023-05-31T01:43:11;8.00;99.90
28767;DHT22;15921;52.034;20.650;2023-05-31T01:45:37;8.00;99.90
28767;DHT22;15921;52.034;20.650;2023-05-31T01:48:06;8.00;99.90
28767;DHT22;15921;52.034;20.650;2023-05-31T01:50:33;8.00;99.90
28767;DHT22;15921;52.034;20.650;2023-05-31T01:53:00;8.00;99.90
28767;DHT22;15921;52.034;20.650;2023-05-31T01:55:26;8.00;99.90
28767;DHT22;15921;52.034;20.650;2023-05-31T01:57:54;8.00;99.90
28767;DHT22;15921;52.034;20.650;2023-05-31T02:00:22;8.00;99.90
28767;DHT22;15921;52.034;20.650;2023-05-31T02:02:50;8.00;99.90
28767;DHT22;15921;52.034;20.650;2023-05-31T02:05:16;8.00;99.90
28767;DHT22;15921;52.034;20.650;2023-05-31T02:07:44;8.00;99.90
28767;DHT22;15921;52.034;20.650;2023-05-31T02:10:10;8.00;99.90
28767;DHT22;15921;52.034;20.650;2023-05-31T02:12:36;7.90;99.90
28767;DHT22;15921;52.034;20.650;2023-05-31T02:15:03;8.00;99.90
28767;DHT22;15921;52.034;20.650;2023-05-31T02:17:29;8.00;99.90
28767;DHT22;15921;52.034;20.650;2023-05-31T02:19:59;8.00;99.90
28767;DHT22;15921;52.034;20.650;2023-05-31T02:22:24;8.00;99.90
28767;DHT22;15921;52.034;20.650;2023-05-31T02:24:50;8.00;99.90
28767;DHT22;15921;52.034;20.650;2023-05-31T02:27:16;7.90;99.90
28767;DHT22;15921;52.034;20.650;2023-05-31T02:29:45;7.90;99.90
28767;DHT22;15921;52.034;20.650;2023-05-31T02:32:11;7.90;99.90
28767;DHT22;15921;52.034;20.650;2023-05-31T02:34:36;7.90;99.90
28767;DHT22;15921;52.034;20.650;2023-05-31T02:37:02;7.80;99.90
28767;DHT22;15921;52.034;20.650;2023-05-31T02:39:28;7.80;99.90
28767;DHT22;15921;52.034;20.650;2023-05-31T02:41:54;7.80;99.90
28767;DHT22;15921;52.034;20.650;2023-05-31T02:44:20;7.90;99.90
28767;DHT22;15921;52.034;20.650;2023-05-31T02:46:46;7.80;99.90
28767;DHT22;15921;52.034;20.650;2023-05-31T02:49:12;7.80;99.90
28767;DHT22;15921;52.034;20.650;2023-05-31T02:51:38;7.80;99.90
28767;DHT22;15921;52.034;20.650;2023-05-31T02:54:03;7.80;99.90
28767;DHT22;15921;52.034;20.650;2023-05-31T02:56:29;7.70;99.90
28767;DHT22;15921;52.034;20.650;2023-05-31T02:58:55;7.70;99.90
28767;DHT22;15921;52.034;20.650;2023-05-31T03:01:21;7.80;99.90
28767;DHT22;15921;52.034;20.650;2023-05-31T03:03:47;7.70;99.90
28767;DHT22;15921;52.034;20.650;2023-05-31T03:06:13;7.80;99.90
28767;DHT22;15921;52.034;20.650;2023-05-31T03:08:44;7.80;99.90
28767;DHT22;15921;52.034;20.650;2023-05-31T03:11:10;7.80;99.90
28767;DHT22;15921;52.034;20.650;2023-05-31T03:13:36;7.70;99.90
28767;DHT22;15921;52.034;20.650;2023-05-31T03:16:02;7.80;99.90
28767;DHT22;15921;52.034;20.650;2023-05-31T03:18:27;7.90;99.90
28767;DHT22;15921;52.034;20.650;2023-05-31T03:20:53;7.90;99.90
28767;DHT22;15921;52.034;20.650;2023-05-31T03:23:18;7.90;99.90
28767;DHT22;15921;52.034;20.650;2023-05-31T03:25:44;8.00;99.90
28767;DHT22;15921;52.034;20.650;2023-05-31T03:28:10;8.00;99.90
28767;DHT22;15921;52.034;20.650;2023-05-31T03:30:36;8.10;99.90
28767;DHT22;15921;52.034;20.650;2023-05-31T03:33:01;8.20;99.90
28767;DHT22;15921;52.034;20.650;2023-05-31T03:35:28;8.20;99.90
28767;DHT22;15921;52.034;20.650;2023-05-31T03:37:54;8.30;99.90
28767;DHT22;15921;52.034;20.650;2023-05-31T03:40:19;8.40;99.90
28767;DHT22;15921;52.034;20.650;2023-05-31T03:42:45;8.50;99.90
28767;DHT22;15921;52.034;20.650;2023-05-31T03:45:11;8.60;99.90
28767;DHT22;15921;52.034;20.650;2023-05-31T03:47:37;8.70;99.90
28767;DHT22;15921;52.034;20.650;2023-05-31T03:50:05;8.70;99.90
28767;DHT22;15921;52.034;20.650;2023-05-31T03:52:32;8.70;99.90
28767;DHT22;15921;52.034;20.650;2023-05-31T03:54:57;8.80;99.90
28767;DHT22;15921;52.034;20.650;2023-05-31T03:57:23;8.90;99.90
28767;DHT22;15921;52.034;20.650;2023-05-31T03:59:49;9.00;99.90
28767;DHT22;15921;52.034;20.650;2023-05-31T04:02:14;9.20;99.90
28767;DHT22;15921;52.034;20.650;2023-05-31T04:04:40;9.30;99.90
28767;DHT22;15921;52.034;20.650;2023-05-31T04:07:06;9.40;99.90
28767;DHT22;15921;52.034;20.650;2023-05-31T04:09:31;9.50;99.90
28767;DHT22;15921;52.034;20.650;2023-05-31T04:11:57;9.70;99.90
28767;DHT22;15921;52.034;20.650;2023-05-31T04:14:23;9.80;99.90
28767;DHT22;15921;52.034;20.650;2023-05-31T04:16:49;9.90;99.90
28767;DHT22;15921;52.034;20.650;2023-05-31T04:19:14;10.00;99.90
28767;DHT22;15921;52.034;20.650;2023-05-31T04:21:40;10.20;99.90
28767;DHT22;15921;52.034;20.650;2023-05-31T04:24:06;10.30;99.90
28767;DHT22;15921;52.034;20.650;2023-05-31T04:26:32;10.50;99.90
28767;DHT22;15921;52.034;20.650;2023-05-31T04:28:59;10.60;99.90
28767;DHT22;15921;52.034;20.650;2023-05-31T04:31:25;10.70;99.90
28767;DHT22;15921;52.034;20.650;2023-05-31T04:33:54;10.90;99.90
28767;DHT22;15921;52.034;20.650;2023-05-31T04:36:25;11.00;99.90
28767;DHT22;15921;52.034;20.650;2023-05-31T04:38:51;11.10;99.90
28767;DHT22;15921;52.034;20.650;2023-05-31T04:41:22;11.20;99.90
28767;DHT22;15921;52.034;20.650;2023-05-31T04:43:51;11.30;99.90
28767;DHT22;15921;52.034;20.650;2023-05-31T04:46:18;11.40;99.90
28767;DHT22;15921;52.034;20.650;2023-05-31T04:48:45;11.50;99.90
28767;DHT22;15921;52.034;20.650;2023-05-31T04:51:13;11.60;99.90
28767;DHT22;15921;52.034;20.650;2023-05-31T04:53:39;11.70;99.90
28767;DHT22;15921;52.034;20.650;2023-05-31T04:56:05;11.80;99.90
28767;DHT22;15921;52.034;20.650;2023-05-31T04:58:33;11.90;99.90
28767;DHT22;15921;52.034;20.650;2023-05-31T05:00:59;12.00;99.90
28767;DHT22;15921;52.034;20.650;2023-05-31T05:03:27;12.10;99.90
28767;DHT22;15921;52.034;20.650;2023-05-31T05:05:55;12.20;99.90
28767;DHT22;15921;52.034;20.650;2023-05-31T05:08:21;12.30;99.90
28767;DHT22;15921;52.034;20.650;2023-05-31T05:10:48;12.40;99.90
28767;DHT22;15921;52.034;20.650;2023-05-31T05:13:14;12.50;99.90
28767;DHT22;15921;52.034;20.650;2023-05-31T05:15:41;12.60;99.90
28767;DHT22;15921;52.034;20.650;2023-05-31T05:18:07;12.70;99.90
28767;DHT22;15921;52.034;20.650;2023-05-31T05:20:33;12.80;99.90
28767;DHT22;15921;52.034;20.650;2023-05-31T05:23:00;12.90;99.90
28767;DHT22;15921;52.034;20.650;2023-05-31T05:25:32;12.90;99.90
28767;DHT22;15921;52.034;20.650;2023-05-31T05:27:58;13.00;99.90
28767;DHT22;15921;52.034;20.650;2023-05-31T05:30:23;13.10;99.90
28767;DHT22;15921;52.034;20.650;2023-05-31T05:32:51;13.20;99.90
28767;DHT22;15921;52.034;20.650;2023-05-31T05:35:16;13.20;99.70
28767;DHT22;15921;52.034;20.650;2023-05-31T05:37:42;13.30;98.00
28767;DHT22;15921;52.034;20.650;2023-05-31T05:40:08;13.30;97.40
28767;DHT22;15921;52.034;20.650;2023-05-31T05:42:34;13.40;97.00
28767;DHT22;15921;52.034;20.650;2023-05-31T05:45:04;13.50;96.80
28767;DHT22;15921;52.034;20.650;2023-05-31T05:47:31;13.60;96.90
28767;DHT22;15921;52.034;20.650;2023-05-31T05:49:56;13.70;96.60
28767;DHT22;15921;52.034;20.650;2023-05-31T05:52:22;13.70;95.30
28767;DHT22;15921;52.034;20.650;2023-05-31T05:54:47;13.80;95.40
28767;DHT22;15921;52.034;20.650;2023-05-31T05:57:13;13.90;95.00
28767;DHT22;15921;52.034;20.650;2023-05-31T05:59:39;14.00;94.30
28767;DHT22;15921;52.034;20.650;2023-05-31T06:02:06;14.10;94.40
28767;DHT22;15921;52.034;20.650;2023-05-31T06:04:32;14.10;94.20
28767;DHT22;15921;52.034;20.650;2023-05-31T06:06:57;14.20;93.70
28767;DHT22;15921;52.034;20.650;2023-05-31T06:09:23;14.20;92.10
28767;DHT22;15921;52.034;20.650;2023-05-31T06:11:49;14.20;91.70
28767;DHT22;15921;52.034;20.650;2023-05-31T06:14:14;14.30;91.70
28767;DHT22;15921;52.034;20.650;2023-05-31T06:16:40;14.50;91.50
28767;DHT22;15921;52.034;20.650;2023-05-31T06:19:06;14.60;91.00
28767;DHT22;15921;52.034;20.650;2023-05-31T06:21:31;14.70;90.30
28767;DHT22;15921;52.034;20.650;2023-05-31T06:23:57;14.80;89.00
28767;DHT22;15921;52.034;20.650;2023-05-31T06:26:23;14.80;87.40
28767;DHT22;15921;52.034;20.650;2023-05-31T06:28:48;14.90;86.10
28767;DHT22;15921;52.034;20.650;2023-05-31T06:31:14;15.00;85.90
28767;DHT22;15921;52.034;20.650;2023-05-31T06:33:40;15.10;85.10
28767;DHT22;15921;52.034;20.650;2023-05-31T06:36:05;15.10;84.40
28767;DHT22;15921;52.034;20.650;2023-05-31T06:38:31;15.10;84.30
28767;DHT22;15921;52.034;20.650;2023-05-31T06:40:57;15.20;84.40
28767;DHT22;15921;52.034;20.650;2023-05-31T06:43:22;15.30;83.50
28767;DHT22;15921;52.034;20.650;2023-05-31T06:45:49;15.30;82.80
28767;DHT22;15921;52.034;20.650;2023-05-31T06:48:15;15.40;82.10
28767;DHT22;15921;52.034;20.650;2023-05-31T06:50:41;15.40;81.90
28767;DHT22;15921;52.034;20.650;2023-05-31T06:53:07;15.50;81.70
28767;DHT22;15921;52.034;20.650;2023-05-31T06:55:34;15.60;81.00
28767;DHT22;15921;52.034;20.650;2023-05-31T06:58:01;15.70;80.20
28767;DHT22;15921;52.034;20.650;2023-05-31T07:00:27;15.80;79.30
28767;DHT22;15921;52.034;20.650;2023-05-31T07:02:52;15.90;79.00
28767;DHT22;15921;52.034;20.650;2023-05-31T07:05:18;15.90;77.50
28767;DHT22;15921;52.034;20.650;2023-05-31T07:07:44;15.90;77.00
28767;DHT22;15921;52.034;20.650;2023-05-31T07:10:10;15.90;77.10
28767;DHT22;15921;52.034;20.650;2023-05-31T07:12:36;16.00;77.20
28767;DHT22;15921;52.034;20.650;2023-05-31T07:15:01;16.10;75.80
28767;DHT22;15921;52.034;20.650;2023-05-31T07:17:27;16.20;73.60
28767;DHT22;15921;52.034;20.650;2023-05-31T07:19:54;16.30;73.50
28767;DHT22;15921;52.034;20.650;2023-05-31T07:22:20;16.40;72.20
28767;DHT22;15921;52.034;20.650;2023-05-31T07:24:47;16.50;70.90
28767;DHT22;15921;52.034;20.650;2023-05-31T07:27:13;16.50;67.80
28767;DHT22;15921;52.034;20.650;2023-05-31T07:29:39;16.50;67.90
28767;DHT22;15921;52.034;20.650;2023-05-31T07:32:05;16.60;65.70
28767;DHT22;15921;52.034;20.650;2023-05-31T07:34:32;16.70;64.20
28767;DHT22;15921;52.034;20.650;2023-05-31T07:36:57;16.80;61.90
28767;DHT22;15921;52.034;20.650;2023-05-31T07:39:23;16.80;60.50
28767;DHT22;15921;52.034;20.650;2023-05-31T07:41:49;16.70;62.30
28767;DHT22;15921;52.034;20.650;2023-05-31T07:44:15;16.80;61.60
28767;DHT22;15921;52.034;20.650;2023-05-31T07:46:42;16.80;59.90
28767;DHT22;15921;52.034;20.650;2023-05-31T07:49:08;16.90;59.00
28767;DHT22;15921;52.034;20.650;2023-05-31T07:51:34;16.90;56.80
28767;DHT22;15921;52.034;20.650;2023-05-31T07:53:59;17.00;57.60
28767;DHT22;15921;52.034;20.650;2023-05-31T07:56:25;17.00;57.20
28767;DHT22;15921;52.034;20.650;2023-05-31T07:58:51;17.00;57.30
28767;DHT22;15921;52.034;20.650;2023-05-31T08:01:16;17.10;57.80
28767;DHT22;15921;52.034;20.650;2023-05-31T08:03:43;17.20;57.50
28767;DHT22;15921;52.034;20.650;2023-05-31T08:06:09;17.20;58.10
28767;DHT22;15921;52.034;20.650;2023-05-31T08:08:35;17.30;57.70
28767;DHT22;15921;52.034;20.650;2023-05-31T08:11:00;17.30;57.50
28767;DHT22;15921;52.034;20.650;2023-05-31T08:13:27;17.40;57.40
28767;DHT22;15921;52.034;20.650;2023-05-31T08:15:54;17.40;56.90
28767;DHT22;15921;52.034;20.650;2023-05-31T08:18:21;17.50;58.30
28767;DHT22;15921;52.034;20.650;2023-05-31T08:20:47;17.60;57.20
28767;DHT22;15921;52.034;20.650;2023-05-31T08:23:22;17.60;57.00
28767;DHT22;15921;52.034;20.650;2023-05-31T08:25:48;17.60;57.70
28767;DHT22;15921;52.034;20.650;2023-05-31T08:28:14;17.80;56.70
28767;DHT22;15921;52.034;20.650;2023-05-31T08:30:40;17.70;56.80
28767;DHT22;15921;52.034;20.650;2023-05-31T08:33:05;17.80;57.50
28767;DHT22;15921;52.034;20.650;2023-05-31T08:35:31;17.80;57.60
28767;DHT22;15921;52.034;20.650;2023-05-31T08:37:57;17.90;57.50
28767;DHT22;15921;52.034;20.650;2023-05-31T08:40:23;18.00;58.10
28767;DHT22;15921;52.034;20.650;2023-05-31T08:42:55;18.00;57.20
28767;DHT22;15921;52.034;20.650;2023-05-31T08:45:26;18.00;56.80
28767;DHT22;15921;52.034;20.650;2023-05-31T08:50:30;18.00;57.90
28767;DHT22;15921;52.034;20.650;2023-05-31T08:52:57;18.00;57.20
28767;DHT22;15921;52.034;20.650;2023-05-31T08:55:24;18.00;57.20
28767;DHT22;15921;52.034;20.650;2023-05-31T08:57:51;18.10;57.70
28767;DHT22;15921;52.034;20.650;2023-05-31T09:00:18;18.10;56.50
28767;DHT22;15921;52.034;20.650;2023-05-31T09:02:45;18.20;56.30
28767;DHT22;15921;52.034;20.650;2023-05-31T09:05:13;18.30;55.30
28767;DHT22;15921;52.034;20.650;2023-05-31T09:07:39;18.30;53.10
28767;DHT22;15921;52.034;20.650;2023-05-31T09:10:06;18.20;53.30
28767;DHT22;15921;52.034;20.650;2023-05-31T09:12:34;18.30;52.90
28767;DHT22;15921;52.034;20.650;2023-05-31T09:15:01;18.30;54.10
28767;DHT22;15921;52.034;20.650;2023-05-31T09:17:27;18.50;54.90
28767;DHT22;15921;52.034;20.650;2023-05-31T09:19:54;18.50;53.30
28767;DHT22;15921;52.034;20.650;2023-05-31T09:22:24;18.50;52.90
28767;DHT22;15921;52.034;20.650;2023-05-31T09:24:59;18.60;52.10
28767;DHT22;15921;52.034;20.650;2023-05-31T09:27:27;18.60;51.50
28767;DHT22;15921;52.034;20.650;2023-05-31T09:30:13;18.70;52.00
28767;DHT22;15921;52.034;20.650;2023-05-31T09:32:39;18.80;53.00
28767;DHT22;15921;52.034;20.650;2023-05-31T09:35:16;18.90;51.90
28767;DHT22;15921;52.034;20.650;2023-05-31T09:37:49;18.90;52.20
28767;DHT22;15921;52.034;20.650;2023-05-31T09:40:16;19.00;50.80
28767;DHT22;15921;52.034;20.650;2023-05-31T09:42:50;19.00;47.70
28767;DHT22;15921;52.034;20.650;2023-05-31T09:45:16;19.00;51.20
28767;DHT22;15921;52.034;20.650;2023-05-31T09:47:42;19.00;51.60
28767;DHT22;15921;52.034;20.650;2023-05-31T09:50:15;19.10;50.50
28767;DHT22;15921;52.034;20.650;2023-05-31T09:52:44;19.20;50.20
28767;DHT22;15921;52.034;20.650;2023-05-31T09:55:12;19.30;48.90
28767;DHT22;15921;52.034;20.650;2023-05-31T09:57:39;19.40;48.60
28767;DHT22;15921;52.034;20.650;2023-05-31T10:00:10;19.40;48.00
28767;DHT22;15921;52.034;20.650;2023-05-31T10:02:53;19.50;45.50
28767;DHT22;15921;52.034;20.650;2023-05-31T10:05:20;19.50;46.30
28767;DHT22;15921;52.034;20.650;2023-05-31T10:07:51;19.70;47.90
28767;DHT22;15921;52.034;20.650;2023-05-31T10:10:17;19.70;47.30
28767;DHT22;15921;52.034;20.650;2023-05-31T10:12:57;19.80;45.40
28767;DHT22;15921;52.034;20.650;2023-05-31T10:15:26;19.90;43.00
28767;DHT22;15921;52.034;20.650;2023-05-31T10:18:07;19.90;42.60
28767;DHT22;15921;52.034;20.650;2023-05-31T10:20:38;19.90;41.70
28767;DHT22;15921;52.034;20.650;2023-05-31T10:23:08;20.00;42.00
28767;DHT22;15921;52.034;20.650;2023-05-31T10:25:41;20.10;42.90
28767;DHT22;15921;52.034;20.650;2023-05-31T10:28:11;20.30;42.90
28767;DHT22;15921;52.034;20.650;2023-05-31T10:30:39;20.30;42.10
28767;DHT22;15921;52.034;20.650;2023-05-31T10:33:07;20.30;42.70
28767;DHT22;15921;52.034;20.650;2023-05-31T10:35:33;20.40;42.80
28767;DHT22;15921;52.034;20.650;2023-05-31T10:38:01;20.50;43.20
28767;DHT22;15921;52.034;20.650;2023-05-31T10:41:04;20.60;42.20
28767;DHT22;15921;52.034;20.650;2023-05-31T10:46:02;20.50;42.10
28767;DHT22;15921;52.034;20.650;2023-05-31T10:51:03;20.60;42.90
28767;DHT22;15921;52.034;20.650;2023-05-31T10:53:37;20.70;43.00
28767;DHT22;15921;52.034;20.650;2023-05-31T10:56:05;20.80;43.10
28767;DHT22;15921;52.034;20.650;2023-05-31T10:58:35;20.90;42.90
28767;DHT22;15921;52.034;20.650;2023-05-31T11:01:10;21.00;42.90
28767;DHT22;15921;52.034;20.650;2023-05-31T11:03:43;21.10;40.20
28767;DHT22;15921;52.034;20.650;2023-05-31T11:06:09;21.10;40.20
28767;DHT22;15921;52.034;20.650;2023-05-31T11:08:36;21.10;39.60
28767;DHT22;15921;52.034;20.650;2023-05-31T11:11:25;21.20;39.70
28767;DHT22;15921;52.034;20.650;2023-05-31T11:14:02;21.30;38.20
28767;DHT22;15921;52.034;20.650;2023-05-31T11:16:30;21.50;38.30
28767;DHT22;15921;52.034;20.650;2023-05-31T11:19:07;21.60;38.10
28767;DHT22;15921;52.034;20.650;2023-05-31T11:21:48;21.70;38.30
28767;DHT22;15921;52.034;20.650;2023-05-31T11:27:13;22.00;37.10
28767;DHT22;15921;52.034;20.650;2023-05-31T11:32:15;22.30;37.40
28767;DHT22;15921;52.034;20.650;2023-05-31T11:35:01;22.40;37.70
28767;DHT22;15921;52.034;20.650;2023-05-31T11:37:29;22.50;37.20
28767;DHT22;15921;52.034;20.650;2023-05-31T11:39:59;22.70;36.50
28767;DHT22;15921;52.034;20.650;2023-05-31T11:42:29;23.00;35.40
28767;DHT22;15921;52.034;20.650;2023-05-31T11:44:56;23.30;36.00
28767;DHT22;15921;52.034;20.650;2023-05-31T11:47:25;23.50;36.10
28767;DHT22;15921;52.034;20.650;2023-05-31T11:49:52;24.00;35.50
28767;DHT22;15921;52.034;20.650;2023-05-31T11:52:19;24.20;35.40
28767;DHT22;15921;52.034;20.650;2023-05-31T11:54:47;24.60;33.80
28767;DHT22;15921;52.034;20.650;2023-05-31T11:57:15;24.80;33.80
28767;DHT22;15921;52.034;20.650;2023-05-31T11:59:42;24.90;33.30
28767;DHT22;15921;52.034;20.650;2023-05-31T12:02:09;25.00;33.00
28767;DHT22;15921;52.034;20.650;2023-05-31T12:04:42;25.30;33.30
28767;DHT22;15921;52.034;20.650;2023-05-31T12:07:14;25.50;33.00
28767;DHT22;15921;52.034;20.650;2023-05-31T12:09:42;26.00;33.40
28767;DHT22;15921;52.034;20.650;2023-05-31T12:12:08;27.20;32.50
28767;DHT22;15921;52.034;20.650;2023-05-31T12:14:34;28.30;30.60
28767;DHT22;15921;52.034;20.650;2023-05-31T12:17:04;29.80;30.80
28767;DHT22;15921;52.034;20.650;2023-05-31T12:19:31;32.40;28.90
28767;DHT22;15921;52.034;20.650;2023-05-31T12:21:57;34.60;27.60
28767;DHT22;15921;52.034;20.650;2023-05-31T12:24:22;36.50;26.40
28767;DHT22;15921;52.034;20.650;2023-05-31T12:26:48;37.40;24.90
28767;DHT22;15921;52.034;20.650;2023-05-31T12:29:17;37.80;24.30
28767;DHT22;15921;52.034;20.650;2023-05-31T12:31:44;38.50;24.20
28767;DHT22;15921;52.034;20.650;2023-05-31T12:34:17;39.30;23.90
28767;DHT22;15921;52.034;20.650;2023-05-31T12:36:48;39.50;23.30
28767;DHT22;15921;52.034;20.650;2023-05-31T12:39:21;39.80;23.00
28767;DHT22;15921;52.034;20.650;2023-05-31T12:41:49;39.50;22.80
28767;DHT22;15921;52.034;20.650;2023-05-31T12:44:17;39.20;23.30
28767;DHT22;15921;52.034;20.650;2023-05-31T12:46:46;38.60;22.80
28767;DHT22;15921;52.034;20.650;2023-05-31T12:49:13;39.10;23.30
28767;DHT22;15921;52.034;20.650;2023-05-31T12:51:41;40.10;22.00
28767;DHT22;15921;52.034;20.650;2023-05-31T12:54:10;39.60;22.60
28767;DHT22;15921;52.034;20.650;2023-05-31T12:56:37;39.10;22.60
28767;DHT22;15921;52.034;20.650;2023-05-31T12:59:02;38.10;22.80
28767;DHT22;15921;52.034;20.650;2023-05-31T13:01:29;38.10;22.80
28767;DHT22;15921;52.034;20.650;2023-05-31T13:03:55;38.60;22.60
28767;DHT22;15921;52.034;20.650;2023-05-31T13:06:20;39.20;22.50
28767;DHT22;15921;52.034;20.650;2023-05-31T13:08:46;40.10;22.10
28767;DHT22;15921;52.034;20.650;2023-05-31T13:11:12;40.70;21.70
28767;DHT22;15921;52.034;20.650;2023-05-31T13:13:37;41.20;22.00
28767;DHT22;15921;52.034;20.650;2023-05-31T13:16:03;40.90;21.50
28767;DHT22;15921;52.034;20.650;2023-05-31T13:18:30;40.80;21.80
28767;DHT22;15921;52.034;20.650;2023-05-31T13:20:56;41.00;21.50
28767;DHT22;15921;52.034;20.650;2023-05-31T13:23:24;41.50;21.40
28767;DHT22;15921;52.034;20.650;2023-05-31T13:25:50;42.40;21.20
28767;DHT22;15921;52.034;20.650;2023-05-31T13:28:16;42.90;21.50
28767;DHT22;15921;52.034;20.650;2023-05-31T13:30:42;42.90;20.70
28767;DHT22;15921;52.034;20.650;2023-05-31T13:33:08;43.40;20.50
28767;DHT22;15921;52.034;20.650;2023-05-31T13:35:34;44.30;20.50
28767;DHT22;15921;52.034;20.650;2023-05-31T13:38:01;44.70;19.90
28767;DHT22;15921;52.034;20.650;2023-05-31T13:40:27;44.20;19.80
28767;DHT22;15921;52.034;20.650;2023-05-31T13:42:53;44.30;20.00
28767;DHT22;15921;52.034;20.650;2023-05-31T13:45:19;43.30;20.50
28767;DHT22;15921;52.034;20.650;2023-05-31T13:47:45;44.00;20.80
28767;DHT22;15921;52.034;20.650;2023-05-31T13:50:11;44.00;20.20
28767;DHT22;15921;52.034;20.650;2023-05-31T13:52:37;43.60;20.20
28767;DHT22;15921;52.034;20.650;2023-05-31T13:55:03;43.80;20.10
28767;DHT22;15921;52.034;20.650;2023-05-31T13:57:29;43.90;19.70
28767;DHT22;15921;52.034;20.650;2023-05-31T13:59:55;44.20;19.60
28767;DHT22;15921;52.034;20.650;2023-05-31T14:02:23;44.30;19.70
28767;DHT22;15921;52.034;20.650;2023-05-31T14:04:48;44.20;19.80
28767;DHT22;15921;52.034;20.650;2023-05-31T14:07:14;44.10;20.00
28767;DHT22;15921;52.034;20.650;2023-05-31T14:09:41;44.70;20.00
28767;DHT22;15921;52.034;20.650;2023-05-31T14:12:07;45.10;19.80
28767;DHT22;15921;52.034;20.650;2023-05-31T14:14:33;44.80;19.70
28767;DHT22;15921;52.034;20.650;2023-05-31T14:16:59;45.00;19.70
28767;DHT22;15921;52.034;20.650;2023-05-31T14:19:26;44.40;20.00
28767;DHT22;15921;52.034;20.650;2023-05-31T14:21:52;44.30;19.90
28767;DHT22;15921;52.034;20.650;2023-05-31T14:24:17;43.60;19.70
28767;DHT22;15921;52.034;20.650;2023-05-31T14:26:43;42.80;20.10
28767;DHT22;15921;52.034;20.650;2023-05-31T14:29:09;42.30;20.50
28767;DHT22;15921;52.034;20.650;2023-05-31T14:31:35;42.20;20.50
28767;DHT22;15921;52.034;20.650;2023-05-31T14:34:03;41.70;19.90
28767;DHT22;15921;52.034;20.650;2023-05-31T14:36:29;42.10;19.90
28767;DHT22;15921;52.034;20.650;2023-05-31T14:38:55;42.80;19.50
28767;DHT22;15921;52.034;20.650;2023-05-31T14:41:21;43.10;19.20
28767;DHT22;15921;52.034;20.650;2023-05-31T14:43:46;43.00;19.20
28767;DHT22;15921;52.034;20.650;2023-05-31T14:46:14;42.70;19.10
28767;DHT22;15921;52.034;20.650;2023-05-31T14:48:40;41.90;19.50
28767;DHT22;15921;52.034;20.650;2023-05-31T14:51:06;41.00;19.90
28767;DHT22;15921;52.034;20.650;2023-05-31T14:53:32;40.70;20.30
28767;DHT22;15921;52.034;20.650;2023-05-31T14:55:58;41.30;20.20
28767;DHT22;15921;52.034;20.650;2023-05-31T14:58:24;42.10;20.20
28767;DHT22;15921;52.034;20.650;2023-05-31T15:00:50;43.00;19.80
28767;DHT22;15921;52.034;20.650;2023-05-31T15:03:16;43.90;19.40
28767;DHT22;15921;52.034;20.650;2023-05-31T15:05:41;44.20;19.30
28767;DHT22;15921;52.034;20.650;2023-05-31T15:08:07;44.10;19.50
28767;DHT22;15921;52.034;20.650;2023-05-31T15:10:33;43.80;19.30
28767;DHT22;15921;52.034;20.650;2023-05-31T15:12:58;43.50;19.50
28767;DHT22;15921;52.034;20.650;2023-05-31T15:15:24;43.00;19.60
28767;DHT22;15921;52.034;20.650;2023-05-31T15:17:50;42.10;19.40
28767;DHT22;15921;52.034;20.650;2023-05-31T15:20:15;41.60;19.40
28767;DHT22;15921;52.034;20.650;2023-05-31T15:22:41;41.60;19.60
28767;DHT22;15921;52.034;20.650;2023-05-31T15:25:07;42.10;19.50
28767;DHT22;15921;52.034;20.650;2023-05-31T15:27:32;42.30;19.20
28767;DHT22;15921;52.034;20.650;2023-05-31T15:29:58;43.10;19.00
28767;DHT22;15921;52.034;20.650;2023-05-31T15:32:24;43.80;18.90
28767;DHT22;15921;52.034;20.650;2023-05-31T15:34:49;44.40;18.80
28767;DHT22;15921;52.034;20.650;2023-05-31T15:37:15;44.90;19.20
28767;DHT22;15921;52.034;20.650;2023-05-31T15:39:41;45.30;18.30
28767;DHT22;15921;52.034;20.650;2023-05-31T15:42:07;44.90;17.90